sensor_id;sensor_type;location;lat;lon;timestamp;pressure;altitude;pressure_sealevel;temperature;humidity
5777;BME280;2914;42.668;23.346;2023-02-26T00:01:35;93361.48;;;14.84;48.31
5777;BME280;2914;42.668;23.346;2023-02-26T00:04:06;93363.70;;;14.81;48.32
5777;BME280;2914;42.668;23.346;2023-02-26T00:06:38;93368.81;;;14.82;48.58
5777;BME280;2914;42.668;23.346;2023-02-26T00:09:10;93352.56;;;14.74;48.62
5777;BME280;2914;42.668;23.346;2023-02-26T00:11:41;93350.32;;;14.61;48.49
5777;BME280;2914;42.668;23.346;2023-02-26T00:14:12;93361.69;;;14.65;47.35
5777;BME280;2914;42.668;23.346;2023-02-26T00:16:44;93338.85;;;14.71;47.73
5777;BME280;2914;42.668;23.346;2023-02-26T00:19:16;93339.69;;;14.71;47.16
5777;BME280;2914;42.668;23.346;2023-02-26T00:21:48;93324.34;;;14.67;47.99
5777;BME280;2914;42.668;23.346;2023-02-26T00:24:17;93330.66;;;14.66;48.19
5777;BME280;2914;42.668;23.346;2023-02-26T00:26:46;93331.89;;;14.63;48.32
5777;BME280;2914;42.668;23.346;2023-02-26T00:29:19;93332.62;;;14.68;47.84
5777;BME280;2914;42.668;23.346;2023-02-26T00:31:51;93351.84;;;14.59;47.99
5777;BME280;2914;42.668;23.346;2023-02-26T00:34:21;93337.13;;;14.56;48.34
5777;BME280;2914;42.668;23.346;2023-02-26T00:36:57;93327.81;;;14.50;48.45
5777;BME280;2914;42.668;23.346;2023-02-26T00:39:33;93334.93;;;14.49;47.64
5777;BME280;2914;42.668;23.346;2023-02-26T00:42:04;93334.76;;;14.51;48.04
5777;BME280;2914;42.668;23.346;2023-02-26T00:44:35;93314.14;;;14.53;47.20
5777;BME280;2914;42.668;23.346;2023-02-26T00:47:07;93330.46;;;14.50;47.36
5777;BME280;2914;42.668;23.346;2023-02-26T00:49:46;93324.80;;;14.42;48.03
5777;BME280;2914;42.668;23.346;2023-02-26T00:52:19;93306.27;;;14.49;47.28
5777;BME280;2914;42.668;23.346;2023-02-26T00:54:49;93313.54;;;14.57;46.90
5777;BME280;2914;42.668;23.346;2023-02-26T00:57:19;93309.27;;;14.56;46.55
5777;BME280;2914;42.668;23.346;2023-02-26T00:59:52;93301.52;;;14.55;46.57
5777;BME280;2914;42.668;23.346;2023-02-26T01:02:23;93317.35;;;14.59;46.56
5777;BME280;2914;42.668;23.346;2023-02-26T01:04:53;93317.23;;;14.56;46.36
5777;BME280;2914;42.668;23.346;2023-02-26T01:07:24;93299.27;;;14.58;46.25
5777;BME280;2914;42.668;23.346;2023-02-26T01:09:54;93303.33;;;14.54;46.45
5777;BME280;2914;42.668;23.346;2023-02-26T01:12:27;93316.27;;;14.53;46.46
5777;BME280;2914;42.668;23.346;2023-02-26T01:14:58;93302.75;;;14.59;46.54
5777;BME280;2914;42.668;23.346;2023-02-26T01:17:30;93290.96;;;14.68;45.97
5777;BME280;2914;42.668;23.346;2023-02-26T01:20:03;93309.63;;;14.64;45.46
5777;BME280;2914;42.668;23.346;2023-02-26T01:25:17;93275.59;;;14.74;46.35
5777;BME280;2914;42.668;23.346;2023-02-26T01:27:48;93257.02;;;14.74;45.96
5777;BME280;2914;42.668;23.346;2023-02-26T01:33:12;93267.96;;;14.89;45.70
5777;BME280;2914;42.668;23.346;2023-02-26T01:35:44;93248.05;;;14.89;45.28
5777;BME280;2914;42.668;23.346;2023-02-26T01:38:34;93259.38;;;14.80;44.97
5777;BME280;2914;42.668;23.346;2023-02-26T01:44:04;93220.56;;;14.79;44.85
5777;BME280;2914;42.668;23.346;2023-02-26T01:46:38;93243.22;;;14.75;44.64
5777;BME280;2914;42.668;23.346;2023-02-26T01:49:11;93243.38;;;14.91;45.49
5777;BME280;2914;42.668;23.346;2023-02-26T01:51:50;93226.38;;;14.72;44.28
5777;BME280;2914;42.668;23.346;2023-02-26T01:54:21;93233.70;;;14.70;44.92
5777;BME280;2914;42.668;23.346;2023-02-26T01:56:55;93230.45;;;14.68;44.32
5777;BME280;2914;42.668;23.346;2023-02-26T01:59:25;93244.63;;;14.71;43.68
5777;BME280;2914;42.668;23.346;2023-02-26T02:01:56;93206.67;;;14.70;43.33
5777;BME280;2914;42.668;23.346;2023-02-26T02:04:26;93190.95;;;14.69;43.37
5777;BME280;2914;42.668;23.346;2023-02-26T02:06:56;93210.95;;;14.65;43.68
5777;BME280;2914;42.668;23.346;2023-02-26T02:09:26;93226.41;;;14.61;44.03
5777;BME280;2914;42.668;23.346;2023-02-26T02:12:07;93244.23;;;14.67;43.87
5777;BME280;2914;42.668;23.346;2023-02-26T02:14:45;93227.42;;;14.60;44.19
5777;BME280;2914;42.668;23.346;2023-02-26T02:17:17;93225.23;;;14.64;43.88
5777;BME280;2914;42.668;23.346;2023-02-26T02:20:13;93214.92;;;14.65;43.92
5777;BME280;2914;42.668;23.346;2023-02-26T02:22:59;93227.73;;;14.61;44.24
5777;BME280;2914;42.668;23.346;2023-02-26T02:25:52;93220.78;;;14.60;44.18
5777;BME280;2914;42.668;23.346;2023-02-26T02:31:11;93214.55;;;14.74;43.45
5777;BME280;2914;42.668;23.346;2023-02-26T02:33:45;93231.45;;;14.67;43.17
5777;BME280;2914;42.668;23.346;2023-02-26T02:36:18;93221.05;;;14.65;42.59
5777;BME280;2914;42.668;23.346;2023-02-26T02:38:50;93220.58;;;14.62;42.67
5777;BME280;2914;42.668;23.346;2023-02-26T02:41:21;93199.16;;;14.56;42.51
5777;BME280;2914;42.668;23.346;2023-02-26T02:43:52;93227.08;;;14.63;42.40
5777;BME280;2914;42.668;23.346;2023-02-26T02:46:24;93205.79;;;14.56;42.63
5777;BME280;2914;42.668;23.346;2023-02-26T02:48:57;93215.88;;;14.57;42.32
5777;BME280;2914;42.668;23.346;2023-02-26T02:51:29;93226.93;;;14.61;42.29
5777;BME280;2914;42.668;23.346;2023-02-26T02:54:03;93251.50;;;14.58;43.12
5777;BME280;2914;42.668;23.346;2023-02-26T02:56:35;93252.59;;;14.53;42.69
5777;BME280;2914;42.668;23.346;2023-02-26T02:59:10;93238.87;;;14.61;42.65
5777;BME280;2914;42.668;23.346;2023-02-26T03:01:42;93252.69;;;14.67;42.51
5777;BME280;2914;42.668;23.346;2023-02-26T03:04:15;93234.31;;;14.65;42.45
5777;BME280;2914;42.668;23.346;2023-02-26T03:06:45;93240.45;;;14.72;42.19
5777;BME280;2914;42.668;23.346;2023-02-26T03:09:16;93246.98;;;14.63;42.04
5777;BME280;2914;42.668;23.346;2023-02-26T03:11:47;93251.02;;;14.59;41.81
5777;BME280;2914;42.668;23.346;2023-02-26T03:14:16;93251.88;;;14.66;41.91
5777;BME280;2914;42.668;23.346;2023-02-26T03:17:07;93253.20;;;14.66;41.78
5777;BME280;2914;42.668;23.346;2023-02-26T03:19:40;93222.26;;;14.63;41.58
5777;BME280;2914;42.668;23.346;2023-02-26T03:22:12;93248.50;;;14.68;40.88
5777;BME280;2914;42.668;23.346;2023-02-26T03:24:47;93244.98;;;14.61;41.17
5777;BME280;2914;42.668;23.346;2023-02-26T03:27:19;93242.16;;;14.63;41.45
5777;BME280;2914;42.668;23.346;2023-02-26T03:32:41;93240.63;;;14.64;41.12
5777;BME280;2914;42.668;23.346;2023-02-26T03:35:15;93239.50;;;14.63;41.17
5777;BME280;2914;42.668;23.346;2023-02-26T03:37:49;93229.52;;;14.65;41.11
5777;BME280;2914;42.668;23.346;2023-02-26T03:40:23;93227.56;;;14.63;41.20
5777;BME280;2914;42.668;23.346;2023-02-26T03:42:56;93220.23;;;14.65;41.21
5777;BME280;2914;42.668;23.346;2023-02-26T03:45:27;93216.45;;;14.70;41.47
5777;BME280;2914;42.668;23.346;2023-02-26T03:47:59;93230.97;;;14.67;41.16
5777;BME280;2914;42.668;23.346;2023-02-26T03:50:31;93217.98;;;14.68;41.29
5777;BME280;2914;42.668;23.346;2023-02-26T03:53:04;93214.66;;;14.77;41.32
5777;BME280;2914;42.668;23.346;2023-02-26T03:55:38;93219.31;;;14.68;41.45
5777;BME280;2914;42.668;23.346;2023-02-26T03:58:08;93212.47;;;14.70;41.21
5777;BME280;2914;42.668;23.346;2023-02-26T04:00:39;93213.19;;;14.68;41.28
5777;BME280;2914;42.668;23.346;2023-02-26T04:03:11;93199.83;;;14.72;41.34
5777;BME280;2914;42.668;23.346;2023-02-26T04:05:44;93206.45;;;14.65;41.37
5777;BME280;2914;42.668;23.346;2023-02-26T04:08:14;93211.30;;;14.62;41.52
5777;BME280;2914;42.668;23.346;2023-02-26T04:10:46;93201.45;;;14.66;41.55
5777;BME280;2914;42.668;23.346;2023-02-26T04:13:17;93207.25;;;14.66;41.63
5777;BME280;2914;42.668;23.346;2023-02-26T04:15:46;93204.83;;;14.71;41.60
5777;BME280;2914;42.668;23.346;2023-02-26T04:18:16;93207.81;;;14.79;41.39
5777;BME280;2914;42.668;23.346;2023-02-26T04:20:45;93204.13;;;14.73;41.10
5777;BME280;2914;42.668;23.346;2023-02-26T04:23:14;93196.26;;;14.69;41.33
5777;BME280;2914;42.668;23.346;2023-02-26T04:25:44;93209.75;;;14.81;41.29
5777;BME280;2914;42.668;23.346;2023-02-26T04:30:50;93186.99;;;14.75;41.25
5777;BME280;2914;42.668;23.346;2023-02-26T04:33:20;93194.77;;;14.59;41.13
5777;BME280;2914;42.668;23.346;2023-02-26T04:35:50;93181.66;;;14.69;41.19
5777;BME280;2914;42.668;23.346;2023-02-26T04:38:19;93169.11;;;14.73;41.04
5777;BME280;2914;42.668;23.346;2023-02-26T04:40:49;93182.11;;;14.62;40.94
5777;BME280;2914;42.668;23.346;2023-02-26T04:43:19;93163.92;;;14.52;40.99
5777;BME280;2914;42.668;23.346;2023-02-26T04:45:49;93165.06;;;14.60;40.47
5777;BME280;2914;42.668;23.346;2023-02-26T04:48:18;93166.70;;;14.61;40.59
5777;BME280;2914;42.668;23.346;2023-02-26T04:50:48;93170.37;;;14.60;40.35
5777;BME280;2914;42.668;23.346;2023-02-26T04:53:18;93170.94;;;14.66;40.21
5777;BME280;2914;42.668;23.346;2023-02-26T04:55:52;93168.08;;;14.68;40.34
5777;BME280;2914;42.668;23.346;2023-02-26T04:58:21;93166.45;;;14.73;40.32
5777;BME280;2914;42.668;23.346;2023-02-26T05:00:50;93162.47;;;14.73;40.18
5777;BME280;2914;42.668;23.346;2023-02-26T05:03:20;93173.59;;;14.66;39.83
5777;BME280;2914;42.668;23.346;2023-02-26T05:05:54;93171.48;;;14.62;40.40
5777;BME280;2914;42.668;23.346;2023-02-26T05:08:23;93184.52;;;14.67;40.59
5777;BME280;2914;42.668;23.346;2023-02-26T05:10:52;93162.45;;;14.67;40.63
5777;BME280;2914;42.668;23.346;2023-02-26T05:13:24;93134.19;;;14.76;48.25
5777;BME280;2914;42.668;23.346;2023-02-26T05:15:54;93148.59;;;14.85;41.00
5777;BME280;2914;42.668;23.346;2023-02-26T05:18:23;93154.30;;;14.75;39.46
5777;BME280;2914;42.668;23.346;2023-02-26T05:20:55;93146.97;;;14.90;39.64
5777;BME280;2914;42.668;23.346;2023-02-26T05:26:09;93123.91;;;14.91;39.10
5777;BME280;2914;42.668;23.346;2023-02-26T05:28:38;93122.27;;;14.90;39.35
5777;BME280;2914;42.668;23.346;2023-02-26T05:31:07;93129.53;;;14.92;38.80
5777;BME280;2914;42.668;23.346;2023-02-26T05:33:38;93149.44;;;14.92;39.25
5777;BME280;2914;42.668;23.346;2023-02-26T05:36:08;93162.98;;;14.86;39.73
5777;BME280;2914;42.668;23.346;2023-02-26T05:38:38;93157.40;;;14.85;39.62
5777;BME280;2914;42.668;23.346;2023-02-26T05:41:07;93160.14;;;14.95;39.56
5777;BME280;2914;42.668;23.346;2023-02-26T05:43:37;93150.88;;;14.88;39.82
5777;BME280;2914;42.668;23.346;2023-02-26T05:46:06;93134.22;;;14.90;39.68
5777;BME280;2914;42.668;23.346;2023-02-26T05:48:36;93150.23;;;14.86;39.63
5777;BME280;2914;42.668;23.346;2023-02-26T05:51:05;93149.42;;;14.99;39.43
5777;BME280;2914;42.668;23.346;2023-02-26T05:53:36;93156.79;;;14.97;39.17
5777;BME280;2914;42.668;23.346;2023-02-26T05:56:08;93157.69;;;14.93;39.35
5777;BME280;2914;42.668;23.346;2023-02-26T05:58:38;93155.46;;;14.97;39.03
5777;BME280;2914;42.668;23.346;2023-02-26T06:01:08;93150.48;;;15.04;38.81
5777;BME280;2914;42.668;23.346;2023-02-26T06:03:37;93157.21;;;15.00;38.35
5777;BME280;2914;42.668;23.346;2023-02-26T06:06:09;93156.98;;;15.15;38.52
5777;BME280;2914;42.668;23.346;2023-02-26T06:08:38;93163.84;;;15.20;38.27
5777;BME280;2914;42.668;23.346;2023-02-26T06:11:08;93173.03;;;15.24;38.03
5777;BME280;2914;42.668;23.346;2023-02-26T06:13:37;93190.41;;;15.27;38.10
5777;BME280;2914;42.668;23.346;2023-02-26T06:16:07;93166.29;;;15.29;37.84
5777;BME280;2914;42.668;23.346;2023-02-26T06:18:36;93183.24;;;15.27;37.69
5777;BME280;2914;42.668;23.346;2023-02-26T06:23:43;93184.37;;;15.49;37.70
5777;BME280;2914;42.668;23.346;2023-02-26T06:26:13;93177.94;;;15.48;37.39
5777;BME280;2914;42.668;23.346;2023-02-26T06:28:42;93183.66;;;15.51;37.38
5777;BME280;2914;42.668;23.346;2023-02-26T06:31:11;93159.23;;;15.52;37.06
5777;BME280;2914;42.668;23.346;2023-02-26T06:33:41;93176.18;;;15.57;36.85
5777;BME280;2914;42.668;23.346;2023-02-26T06:36:10;93163.89;;;15.70;36.74
5777;BME280;2914;42.668;23.346;2023-02-26T06:38:39;93190.08;;;15.80;36.69
5777;BME280;2914;42.668;23.346;2023-02-26T06:41:09;93179.31;;;15.77;36.39
5777;BME280;2914;42.668;23.346;2023-02-26T06:43:42;93155.13;;;15.83;36.14
5777;BME280;2914;42.668;23.346;2023-02-26T06:46:12;93152.24;;;15.91;35.91
5777;BME280;2914;42.668;23.346;2023-02-26T06:48:44;93151.70;;;15.98;35.97
5777;BME280;2914;42.668;23.346;2023-02-26T06:51:14;93135.73;;;16.05;35.61
5777;BME280;2914;42.668;23.346;2023-02-26T06:53:43;93171.09;;;16.12;35.66
5777;BME280;2914;42.668;23.346;2023-02-26T06:56:14;93177.29;;;16.22;35.34
5777;BME280;2914;42.668;23.346;2023-02-26T06:58:43;93142.59;;;16.26;35.25
5777;BME280;2914;42.668;23.346;2023-02-26T07:04:02;93127.81;;;16.37;34.80
5777;BME280;2914;42.668;23.346;2023-02-26T07:06:32;93134.46;;;16.37;34.82
5777;BME280;2914;42.668;23.346;2023-02-26T07:09:02;93141.58;;;16.43;34.80
5777;BME280;2914;42.668;23.346;2023-02-26T07:14:12;93118.52;;;16.53;34.64
5777;BME280;2914;42.668;23.346;2023-02-26T07:16:41;93145.63;;;16.52;34.55
5777;BME280;2914;42.668;23.346;2023-02-26T07:19:11;93095.46;;;16.56;34.33
5777;BME280;2914;42.668;23.346;2023-02-26T07:21:40;93110.16;;;16.65;34.32
5777;BME280;2914;42.668;23.346;2023-02-26T07:24:10;93094.77;;;16.67;34.33
5777;BME280;2914;42.668;23.346;2023-02-26T07:26:40;93089.01;;;16.70;34.29
5777;BME280;2914;42.668;23.346;2023-02-26T07:29:09;93095.41;;;16.78;33.90
5777;BME280;2914;42.668;23.346;2023-02-26T07:31:40;93104.36;;;16.91;33.90
5777;BME280;2914;42.668;23.346;2023-02-26T07:34:10;93086.77;;;16.90;33.95
5777;BME280;2914;42.668;23.346;2023-02-26T07:36:39;93113.50;;;16.86;33.78
5777;BME280;2914;42.668;23.346;2023-02-26T07:39:09;93079.59;;;16.90;33.98
5777;BME280;2914;42.668;23.346;2023-02-26T07:44:32;93124.11;;;17.08;33.48
5777;BME280;2914;42.668;23.346;2023-02-26T07:47:02;93112.88;;;17.16;33.37
5777;BME280;2914;42.668;23.346;2023-02-26T07:49:39;93122.84;;;17.27;33.26
5777;BME280;2914;42.668;23.346;2023-02-26T07:52:11;93116.77;;;17.29;33.32
5777;BME280;2914;42.668;23.346;2023-02-26T07:54:41;93125.29;;;17.28;32.72
5777;BME280;2914;42.668;23.346;2023-02-26T07:57:11;93101.94;;;17.24;32.86
5777;BME280;2914;42.668;23.346;2023-02-26T07:59:40;93129.03;;;17.21;32.96
5777;BME280;2914;42.668;23.346;2023-02-26T08:02:12;93101.05;;;17.21;32.79
5777;BME280;2914;42.668;23.346;2023-02-26T08:04:43;93135.86;;;17.26;32.82
5777;BME280;2914;42.668;23.346;2023-02-26T08:09:58;93116.45;;;17.28;32.42
5777;BME280;2914;42.668;23.346;2023-02-26T08:12:31;93129.78;;;17.28;32.45
5777;BME280;2914;42.668;23.346;2023-02-26T08:15:02;93136.89;;;17.25;32.43
5777;BME280;2914;42.668;23.346;2023-02-26T08:17:32;93116.91;;;17.25;32.54
5777;BME280;2914;42.668;23.346;2023-02-26T08:20:02;93141.36;;;17.31;32.67
5777;BME280;2914;42.668;23.346;2023-02-26T08:22:36;93103.75;;;17.30;32.57
5777;BME280;2914;42.668;23.346;2023-02-26T08:25:09;93106.55;;;17.26;32.60
5777;BME280;2914;42.668;23.346;2023-02-26T08:27:41;93156.65;;;17.26;32.44
5777;BME280;2914;42.668;23.346;2023-02-26T08:33:08;93123.68;;;17.37;31.96
5777;BME280;2914;42.668;23.346;2023-02-26T08:35:39;93130.98;;;17.32;32.38
5777;BME280;2914;42.668;23.346;2023-02-26T08:38:09;93139.03;;;17.51;32.57
5777;BME280;2914;42.668;23.346;2023-02-26T08:40:39;93142.45;;;17.58;33.99
5777;BME280;2914;42.668;23.346;2023-02-26T08:43:08;93174.66;;;17.56;34.12
5777;BME280;2914;42.668;23.346;2023-02-26T08:45:38;93156.58;;;17.58;33.01
5777;BME280;2914;42.668;23.346;2023-02-26T08:48:07;93162.74;;;17.59;33.11
5777;BME280;2914;42.668;23.346;2023-02-26T08:50:36;93173.63;;;17.57;32.57
5777;BME280;2914;42.668;23.346;2023-02-26T08:55:51;93181.77;;;17.53;32.62
5777;BME280;2914;42.668;23.346;2023-02-26T08:58:21;93176.93;;;17.43;32.23
5777;BME280;2914;42.668;23.346;2023-02-26T09:00:50;93169.91;;;17.49;32.53
5777;BME280;2914;42.668;23.346;2023-02-26T09:03:19;93177.73;;;17.44;32.69
5777;BME280;2914;42.668;23.346;2023-02-26T09:05:49;93185.77;;;17.53;32.40
5777;BME280;2914;42.668;23.346;2023-02-26T09:10:59;93183.45;;;17.57;31.90
5777;BME280;2914;42.668;23.346;2023-02-26T09:13:28;93170.74;;;17.59;31.91
5777;BME280;2914;42.668;23.346;2023-02-26T09:18:35;93180.98;;;17.71;31.70
5777;BME280;2914;42.668;23.346;2023-02-26T09:21:05;93182.84;;;17.80;31.62
5777;BME280;2914;42.668;23.346;2023-02-26T09:23:35;93185.80;;;17.97;32.02
5777;BME280;2914;42.668;23.346;2023-02-26T09:26:05;93164.02;;;18.09;31.10
5777;BME280;2914;42.668;23.346;2023-02-26T09:28:36;93175.59;;;18.22;30.95
5777;BME280;2914;42.668;23.346;2023-02-26T09:31:05;93166.38;;;18.36;30.36
5777;BME280;2914;42.668;23.346;2023-02-26T09:33:35;93188.53;;;18.46;30.54
5777;BME280;2914;42.668;23.346;2023-02-26T09:36:05;93184.30;;;18.57;29.84
5777;BME280;2914;42.668;23.346;2023-02-26T09:38:35;93179.91;;;18.62;29.93
5777;BME280;2914;42.668;23.346;2023-02-26T09:41:07;93204.66;;;18.79;29.99
5777;BME280;2914;42.668;23.346;2023-02-26T09:46:31;93178.56;;;19.11;28.93
5777;BME280;2914;42.668;23.346;2023-02-26T09:49:06;93203.42;;;19.12;29.20
5777;BME280;2914;42.668;23.346;2023-02-26T09:51:36;93158.66;;;19.17;28.89
5777;BME280;2914;42.668;23.346;2023-02-26T09:54:09;93201.52;;;19.22;28.89
5777;BME280;2914;42.668;23.346;2023-02-26T09:56:38;93176.19;;;19.12;28.80
5777;BME280;2914;42.668;23.346;2023-02-26T09:59:09;93170.11;;;19.05;28.60
5777;BME280;2914;42.668;23.346;2023-02-26T10:01:41;93161.98;;;19.00;28.83
5777;BME280;2914;42.668;23.346;2023-02-26T10:04:16;93165.69;;;18.99;29.19
5777;BME280;2914;42.668;23.346;2023-02-26T10:09:35;93164.16;;;19.12;29.31
5777;BME280;2914;42.668;23.346;2023-02-26T10:12:08;93172.05;;;19.07;29.39
5777;BME280;2914;42.668;23.346;2023-02-26T10:17:28;93176.03;;;19.17;29.48
5777;BME280;2914;42.668;23.346;2023-02-26T10:19:59;93163.56;;;19.10;29.75
5777;BME280;2914;42.668;23.346;2023-02-26T10:25:14;93146.42;;;19.09;29.41
5777;BME280;2914;42.668;23.346;2023-02-26T10:27:50;93128.59;;;19.12;29.71
5777;BME280;2914;42.668;23.346;2023-02-26T10:30:29;93134.56;;;19.05;29.43
5777;BME280;2914;42.668;23.346;2023-02-26T10:33:02;93127.81;;;19.02;29.72
5777;BME280;2914;42.668;23.346;2023-02-26T10:38:22;93115.73;;;18.99;29.94
5777;BME280;2914;42.668;23.346;2023-02-26T10:43:42;93105.89;;;18.81;29.71
5777;BME280;2914;42.668;23.346;2023-02-26T10:46:20;93109.20;;;18.74;29.94
5777;BME280;2914;42.668;23.346;2023-02-26T10:55:02;93118.86;;;18.66;30.57
5777;BME280;2914;42.668;23.346;2023-02-26T10:57:33;93113.00;;;18.57;29.86
5777;BME280;2914;42.668;23.346;2023-02-26T11:00:18;93109.39;;;18.52;30.14
5777;BME280;2914;42.668;23.346;2023-02-26T11:02:52;93121.13;;;18.51;30.50
5777;BME280;2914;42.668;23.346;2023-02-26T11:05:24;93113.48;;;18.45;30.59
5777;BME280;2914;42.668;23.346;2023-02-26T11:10:51;93108.09;;;18.42;32.70
5777;BME280;2914;42.668;23.346;2023-02-26T11:13:22;93110.40;;;18.29;31.56
5777;BME280;2914;42.668;23.346;2023-02-26T11:15:52;93088.63;;;18.23;31.70
5777;BME280;2914;42.668;23.346;2023-02-26T11:18:46;93078.27;;;18.15;31.81
5777;BME280;2914;42.668;23.346;2023-02-26T11:21:22;93079.98;;;18.09;31.32
5777;BME280;2914;42.668;23.346;2023-02-26T11:23:53;93078.34;;;18.08;31.37
5777;BME280;2914;42.668;23.346;2023-02-26T11:29:13;93082.80;;;17.96;31.88
5777;BME280;2914;42.668;23.346;2023-02-26T11:31:45;93090.31;;;17.90;32.25
5777;BME280;2914;42.668;23.346;2023-02-26T11:34:15;93108.39;;;17.78;32.55
5777;BME280;2914;42.668;23.346;2023-02-26T11:36:46;93119.52;;;17.85;32.65
5777;BME280;2914;42.668;23.346;2023-02-26T11:39:17;93117.50;;;17.80;32.95
5777;BME280;2914;42.668;23.346;2023-02-26T11:41:49;93134.84;;;17.80;32.91
5777;BME280;2914;42.668;23.346;2023-02-26T11:44:24;93128.78;;;17.82;33.20
5777;BME280;2914;42.668;23.346;2023-02-26T11:49:35;93133.20;;;17.79;33.57
5777;BME280;2914;42.668;23.346;2023-02-26T11:52:21;93133.15;;;17.76;33.61
5777;BME280;2914;42.668;23.346;2023-02-26T11:57:32;93146.34;;;17.80;33.45
5777;BME280;2914;42.668;23.346;2023-02-26T12:00:11;93182.41;;;17.74;33.75
5777;BME280;2914;42.668;23.346;2023-02-26T12:05:16;93185.42;;;17.77;31.69
5777;BME280;2914;42.668;23.346;2023-02-26T12:07:46;93186.45;;;17.67;33.46
5777;BME280;2914;42.668;23.346;2023-02-26T12:10:19;93178.63;;;17.72;33.85
5777;BME280;2914;42.668;23.346;2023-02-26T12:12:54;93186.27;;;17.78;33.81
5777;BME280;2914;42.668;23.346;2023-02-26T12:21:49;93184.91;;;17.69;35.98
5777;BME280;2914;42.668;23.346;2023-02-26T12:24:36;93187.87;;;17.70;35.93
5777;BME280;2914;42.668;23.346;2023-02-26T12:27:10;93178.96;;;17.67;36.02
5777;BME280;2914;42.668;23.346;2023-02-26T12:29:53;93187.04;;;17.69;35.08
5777;BME280;2914;42.668;23.346;2023-02-26T12:35:42;93190.38;;;17.64;37.03
5777;BME280;2914;42.668;23.346;2023-02-26T12:38:24;93214.81;;;17.61;37.93
5777;BME280;2914;42.668;23.346;2023-02-26T12:43:55;93191.09;;;17.62;38.95
5777;BME280;2914;42.668;23.346;2023-02-26T12:46:45;93210.73;;;17.59;39.31
5777;BME280;2914;42.668;23.346;2023-02-26T12:52:20;93207.88;;;17.79;38.38
5777;BME280;2914;42.668;23.346;2023-02-26T12:55:07;93208.56;;;17.84;37.85
5777;BME280;2914;42.668;23.346;2023-02-26T13:00:44;93212.20;;;17.89;35.44
5777;BME280;2914;42.668;23.346;2023-02-26T13:03:33;93227.42;;;17.98;35.31
5777;BME280;2914;42.668;23.346;2023-02-26T13:06:24;93214.09;;;17.98;35.31
5777;BME280;2914;42.668;23.346;2023-02-26T13:08:56;93216.48;;;17.97;34.76
5777;BME280;2914;42.668;23.346;2023-02-26T13:11:33;93204.51;;;17.90;34.61
5777;BME280;2914;42.668;23.346;2023-02-26T13:14:11;93218.79;;;17.87;35.16
5777;BME280;2914;42.668;23.346;2023-02-26T13:16:46;93213.06;;;17.83;35.72
5777;BME280;2914;42.668;23.346;2023-02-26T13:19:24;93223.73;;;17.83;35.84
5777;BME280;2914;42.668;23.346;2023-02-26T13:21:56;93227.69;;;17.80;35.76
5777;BME280;2914;42.668;23.346;2023-02-26T13:24:30;93236.27;;;17.83;35.16
5777;BME280;2914;42.668;23.346;2023-02-26T13:27:01;93223.55;;;17.85;35.14
5777;BME280;2914;42.668;23.346;2023-02-26T13:29:34;93234.70;;;17.84;35.65
5777;BME280;2914;42.668;23.346;2023-02-26T13:32:07;93223.34;;;17.95;36.22
5777;BME280;2914;42.668;23.346;2023-02-26T13:37:26;93210.41;;;18.08;37.16
5777;BME280;2914;42.668;23.346;2023-02-26T13:40:20;93213.23;;;18.13;37.67
5777;BME280;2914;42.668;23.346;2023-02-26T13:42:56;93209.97;;;18.21;37.79
5777;BME280;2914;42.668;23.346;2023-02-26T13:48:19;93209.91;;;18.27;36.76
5777;BME280;2914;42.668;23.346;2023-02-26T13:50:54;93203.46;;;18.26;36.82
5777;BME280;2914;42.668;23.346;2023-02-26T13:57:04;93193.20;;;18.23;36.82
5777;BME280;2914;42.668;23.346;2023-02-26T13:59:35;93207.67;;;18.15;36.74
5777;BME280;2914;42.668;23.346;2023-02-26T14:02:42;93208.56;;;18.18;36.77
5777;BME280;2914;42.668;23.346;2023-02-26T14:05:27;93193.23;;;18.13;36.59
5777;BME280;2914;42.668;23.346;2023-02-26T14:13:40;93193.23;;;18.13;35.85
5777;BME280;2914;42.668;23.346;2023-02-26T14:16:13;93207.21;;;18.09;35.96
5777;BME280;2914;42.668;23.346;2023-02-26T14:18:49;93211.23;;;18.18;35.85
5777;BME280;2914;42.668;23.346;2023-02-26T14:21:45;93215.31;;;18.21;35.98
5777;BME280;2914;42.668;23.346;2023-02-26T14:24:16;93202.98;;;18.10;35.33
5777;BME280;2914;42.668;23.346;2023-02-26T14:26:48;93199.37;;;18.14;35.41
5777;BME280;2914;42.668;23.346;2023-02-26T14:29:24;93217.81;;;17.97;35.65
5777;BME280;2914;42.668;23.346;2023-02-26T14:32:11;93227.28;;;18.02;35.38
5777;BME280;2914;42.668;23.346;2023-02-26T14:34:40;93229.20;;;17.95;34.75
5777;BME280;2914;42.668;23.346;2023-02-26T14:37:10;93229.29;;;17.97;35.27
5777;BME280;2914;42.668;23.346;2023-02-26T14:39:42;93235.98;;;18.07;35.27
5777;BME280;2914;42.668;23.346;2023-02-26T14:42:14;93229.59;;;17.99;35.51
5777;BME280;2914;42.668;23.346;2023-02-26T14:44:46;93228.27;;;17.99;35.33
5777;BME280;2914;42.668;23.346;2023-02-26T14:47:17;93234.57;;;17.88;35.20
5777;BME280;2914;42.668;23.346;2023-02-26T14:49:47;93242.18;;;17.75;34.77
5777;BME280;2914;42.668;23.346;2023-02-26T14:52:35;93228.98;;;17.71;34.17
5777;BME280;2914;42.668;23.346;2023-02-26T14:55:17;93237.20;;;17.70;34.19
5777;BME280;2914;42.668;23.346;2023-02-26T14:57:51;93249.16;;;17.76;34.38
5777;BME280;2914;42.668;23.346;2023-02-26T15:00:27;93246.13;;;17.82;34.54
5777;BME280;2914;42.668;23.346;2023-02-26T15:03:11;93239.55;;;17.85;35.47
5777;BME280;2914;42.668;23.346;2023-02-26T15:05:57;93247.32;;;17.86;35.19
5777;BME280;2914;42.668;23.346;2023-02-26T15:08:37;93245.32;;;17.91;35.23
5777;BME280;2914;42.668;23.346;2023-02-26T15:11:21;93251.99;;;17.91;34.93
5777;BME280;2914;42.668;23.346;2023-02-26T15:14:07;93255.91;;;17.88;34.26
5777;BME280;2914;42.668;23.346;2023-02-26T15:19:36;93253.13;;;17.92;33.95
5777;BME280;2914;42.668;23.346;2023-02-26T15:22:15;93254.77;;;17.77;34.29
5777;BME280;2914;42.668;23.346;2023-02-26T15:24:45;93256.77;;;17.73;34.36
5777;BME280;2914;42.668;23.346;2023-02-26T15:27:17;93242.50;;;17.60;35.40
5777;BME280;2914;42.668;23.346;2023-02-26T15:29:48;93259.61;;;17.62;36.43
5777;BME280;2914;42.668;23.346;2023-02-26T15:35:05;93262.55;;;17.38;37.78
5777;BME280;2914;42.668;23.346;2023-02-26T15:37:35;93283.67;;;17.39;37.95
5777;BME280;2914;42.668;23.346;2023-02-26T15:40:08;93276.70;;;17.38;38.26